Accueil
METAR-TAF:

METAR-TAF

Aéroports :

St. Johns, Arizona, États-Unis

latitude: 34-31-06N, longitude: 109-22-45W, altitude: 1747 m

Observation

Le bulletin a été fait il y a 28 minutes, à 08:54 UTC
Vent calme
Température 19°C
Humidité 43%
Pression 1024 hPa
Visibilité: 16.1 km
Nuages fragmentés à une hauteur de 12000 ft

METAR: KSJN 300854Z AUTO 00000KT 10SM BKN120 19/06 A3023 RMK AO2 SLP138 T01890056 56009

Heure: 02:22 (09:22 UTC)


TAF: absent

Observations et prévisions météorologiques de plus de 4000 aéroports (messages METAR et TAF).

Les stations disponibles sont représentées par des disques jaunes et rouges sur la carte.

Passer la souris dessus pour voir le nom de la station.

Cliquer dessus pour voir les observations et prévisions météorologiques.

Pour changer de carte: cliquez sur les boutons verts avec une croix noire pour zoomer, sur le bouton vert avec un tiret pour effectuer un zoom arrière, ou sur les flèches vertes pour les cartes adjacentes.


METAR-TAF: